Time;durP1;ratioP1;P1;durP2;ratioP2;P2;SDS_P1;SDS_P2;PMS_P1;PMS_P2;Temp;Humidity;BMP_temperature;BMP_pressure;BME280_temperature;BME280_humidity;BME280_pressure;Samples;Min_cycle;Max_cycle;Signal;HPM_P1;HPM_P2
2021/09/29 00:02:08;;;;;;;;;1.00;0.00;;;;;17.67;56.00;101384.72;5023410;28;61284;-76
2021/09/29 00:04:33;;;;;;;;;2.67;0.00;;;;;17.68;56.04;101383.81;5025370;28;45361;-77
2021/09/29 00:06:59;;;;;;;;;1.00;0.00;;;;;17.68;56.37;101370.47;5026220;28;45471;-78
2021/09/29 00:09:24;;;;;;;;;0.00;0.00;;;;;17.68;56.41;101370.47;5028182;28;50435;-75
2021/09/29 00:11:49;;;;;;;;;8.00;1.00;;;;;17.66;56.34;101366.94;5037782;28;60928;-78
2021/09/29 00:14:15;;;;;;;;;1.67;0.00;;;;;17.65;56.62;101371.41;5038730;28;45410;-79
2021/09/29 00:16:40;;;;;;;;;0.00;0.00;;;;;17.68;56.50;101366.00;5038609;28;47035;-78
2021/09/29 00:19:06;;;;;;;;;0.00;0.00;;;;;17.66;56.72;101370.50;5037308;28;45389;-75
2021/09/29 00:21:31;;;;;;;;;2.00;0.00;;;;;17.66;56.63;101373.16;5035671;28;56876;-75
2021/09/29 00:23:56;;;;;;;;;1.00;0.00;;;;;17.67;56.92;101371.38;5034377;28;53293;-75
2021/09/29 00:26:22;;;;;;;;;0.00;0.00;;;;;17.66;56.73;101369.59;5014651;28;45872;-75
2021/09/29 00:28:47;;;;;;;;;0.00;0.00;;;;;17.66;56.47;101367.81;5029089;28;46855;-78
2021/09/29 00:31:35;;;;;;;;;0.00;0.00;;;;;17.64;56.43;101371.41;5039517;28;63111;-77
2021/09/29 00:34:14;;;;;;;;;1.67;0.00;;;;;17.59;56.77;101381.25;5037013;28;45625;-74
2021/09/29 00:36:42;;;;;;;;;1.00;0.00;;;;;17.58;56.78;101371.44;5029931;28;45327;-75
2021/09/29 00:39:07;;;;;;;;;0.00;0.00;;;;;17.61;56.64;101374.97;5031837;28;45457;-76
2021/09/29 00:41:33;;;;;;;;;1.00;1.00;;;;;17.61;56.79;101364.31;5035913;28;46284;-76
2021/09/29 00:43:58;;;;;;;;;2.00;0.00;;;;;17.62;56.95;101367.84;5037571;28;45380;-75
2021/09/29 00:46:24;;;;;;;;;1.67;0.00;;;;;17.56;56.92;101350.09;5035589;28;45476;-75
2021/09/29 00:48:49;;;;;;;;;0.00;0.00;;;;;17.60;57.30;101351.84;5032403;28;54863;-76
2021/09/29 00:51:14;;;;;;;;;1.33;0.33;;;;;17.60;57.26;101357.19;5030624;28;63210;-76
2021/09/29 00:53:40;;;;;;;;;0.00;0.00;;;;;17.60;56.99;101351.84;5041642;28;53360;-76
2021/09/29 00:56:06;;;;;;;;;0.00;0.00;;;;;17.58;56.79;101347.41;5030962;28;45458;-78
2021/09/29 00:58:31;;;;;;;;;0.33;0.00;;;;;17.58;57.05;101343.00;5032647;28;45689;-76
2021/09/29 01:00:57;;;;;;;;;0.00;0.00;;;;;17.55;57.40;101343.88;5019046;28;64009;-77
2021/09/29 01:03:22;;;;;;;;;0.67;0.00;;;;;17.52;57.31;101337.69;5029419;28;45515;-75
2021/09/29 01:05:48;;;;;;;;;0.00;0.00;;;;;17.50;57.23;101336.81;5019699;28;45456;-77
2021/09/29 01:08:14;;;;;;;;;3.00;0.00;;;;;17.50;57.45;101344.84;4993396;28;52652;-75
2021/09/29 01:10:47;;;;;;;;;0.00;0.00;;;;;17.47;57.48;101340.41;5005514;28;45282;-75
2021/09/29 01:13:15;;;;;;;;;2.00;1.00;;;;;17.48;57.73;101341.31;5029324;28;45451;-75
2021/09/29 01:15:46;;;;;;;;;0.67;0.67;;;;;17.45;57.46;101335.97;5037079;28;45475;-77
2021/09/29 01:18:12;;;;;;;;;0.00;0.00;;;;;17.49;57.62;101340.41;5025367;28;45530;-76
2021/09/29 01:20:45;;;;;;;;;3.00;0.00;;;;;17.50;58.12;101340.38;5019611;28;47034;-78
2021/09/29 01:23:16;;;;;;;;;2.00;1.00;;;;;17.52;57.73;101343.94;5018725;28;45558;-78
2021/09/29 01:25:57;;;;;;;;;1.33;0.00;;;;;17.53;58.01;101342.16;5035055;28;45479;-76
2021/09/29 01:28:59;;;;;;;;;2.00;1.00;;;;;17.53;58.52;101339.47;5016709;28;45386;-76
2021/09/29 01:31:25;;;;;;;;;4.33;0.00;;;;;17.51;58.90;101327.91;5035960;28;45316;-77
2021/09/29 01:33:50;;;;;;;;;0.67;0.67;;;;;17.52;59.32;101333.25;5018402;28;45349;-76
2021/09/29 01:36:17;;;;;;;;;1.00;1.00;;;;;17.52;59.04;101327.00;5024516;28;45303;-78
2021/09/29 01:38:43;;;;;;;;;1.33;0.00;;;;;17.50;59.69;101320.81;5019655;28;45373;-77
2021/09/29 01:41:08;;;;;;;;;1.00;0.00;;;;;17.46;59.17;101317.25;5013158;28;47357;-78
2021/09/29 01:43:34;;;;;;;;;0.00;0.00;;;;;17.43;60.00;101319.09;5026170;28;45337;-79
2021/09/29 01:45:59;;;;;;;;;0.00;0.00;;;;;17.40;60.13;101324.44;5035317;28;45390;-75
2021/09/29 01:48:25;;;;;;;;;4.00;1.00;;;;;17.39;60.17;101325.38;5036523;28;45316;-76
2021/09/29 01:50:57;;;;;;;;;1.67;0.00;;;;;17.39;60.06;101310.22;5007110;28;60187;-78
2021/09/29 01:53:23;;;;;;;;;5.00;0.67;;;;;17.38;60.12;101300.44;5025429;28;45505;-76
2021/09/29 01:55:49;;;;;;;;;2.00;2.00;;;;;17.36;60.51;101323.59;5021285;28;45353;-76
2021/09/29 01:58:15;;;;;;;;;2.00;0.00;;;;;17.33;60.63;101306.72;5001427;28;45318;-77
2021/09/29 02:00:41;;;;;;;;;0.00;0.00;;;;;17.34;60.59;101316.50;5036283;28;47342;-77
2021/09/29 02:03:06;;;;;;;;;3.67;0.00;;;;;17.34;61.05;101319.19;5021619;28;45412;-75
2021/09/29 02:05:33;;;;;;;;;0.00;0.00;;;;;17.33;60.97;101312.06;5022186;28;52207;-77
2021/09/29 02:07:59;;;;;;;;;3.67;1.00;;;;;17.29;60.81;101316.53;5037648;28;45369;-74
2021/09/29 02:10:25;;;;;;;;;2.67;1.00;;;;;17.18;60.95;101305.09;5029052;28;47008;-76
2021/09/29 02:12:50;;;;;;;;;0.00;0.00;;;;;17.13;61.68;101297.09;5036076;28;45472;-75
2021/09/29 02:15:16;;;;;;;;;1.00;0.00;;;;;17.14;61.32;101301.53;5026608;28;45289;-78
2021/09/29 02:17:41;;;;;;;;;5.33;1.00;;;;;17.17;61.82;101314.88;5025951;28;45536;-75
2021/09/29 02:20:07;;;;;;;;;0.00;0.00;;;;;17.18;61.86;101303.28;5023834;28;60576;-75
2021/09/29 02:22:32;;;;;;;;;2.00;1.00;;;;;17.18;61.57;101311.31;5030169;28;45507;-78
2021/09/29 02:24:57;;;;;;;;;1.00;0.00;;;;;17.19;62.14;101313.06;5013513;28;50127;-75
2021/09/29 02:27:23;;;;;;;;;1.33;0.00;;;;;17.20;61.95;101304.16;5029175;28;45448;-75
2021/09/29 02:29:48;;;;;;;;;0.00;0.00;;;;;17.20;61.75;101300.59;5024638;28;45349;-75
2021/09/29 02:32:14;;;;;;;;;3.00;0.00;;;;;17.19;62.52;101309.50;5041045;28;51974;-78
2021/09/29 02:34:39;;;;;;;;;1.00;0.00;;;;;17.17;62.00;101311.31;5046797;28;45475;-76
2021/09/29 02:37:05;;;;;;;;;1.33;0.00;;;;;17.14;62.11;101309.56;5036789;28;45530;-76
2021/09/29 02:39:30;;;;;;;;;2.00;1.00;;;;;17.19;62.63;101310.41;5036539;28;46401;-76
2021/09/29 02:41:56;;;;;;;;;5.00;0.00;;;;;17.20;62.19;101303.28;5032948;28;45366;-75
2021/09/29 02:44:22;;;;;;;;;1.67;0.00;;;;;17.17;62.52;101312.22;5031638;28;45238;-78
2021/09/29 02:46:47;;;;;;;;;0.00;0.00;;;;;17.16;62.68;101318.44;5030622;28;45590;-75
2021/09/29 02:49:12;;;;;;;;;3.00;1.00;;;;;17.15;62.73;101321.09;5028451;28;58196;-78
2021/09/29 02:51:38;;;;;;;;;0.67;0.67;;;;;17.12;63.07;101311.34;5027594;28;45444;-77
2021/09/29 02:54:03;;;;;;;;;2.00;1.00;;;;;17.08;63.16;101309.59;5022456;28;50770;-76
2021/09/29 02:56:29;;;;;;;;;3.33;0.33;;;;;17.05;62.96;101306.09;5025242;28;45277;-76
2021/09/29 02:58:54;;;;;;;;;3.00;0.00;;;;;17.07;62.92;101309.63;5019300;28;46310;-75
2021/09/29 03:01:20;;;;;;;;;3.67;1.00;;;;;17.03;63.22;101314.97;5040355;28;45266;-76
2021/09/29 03:03:45;;;;;;;;;1.67;0.00;;;;;17.09;64.02;101318.50;5016776;28;45501;-76
2021/09/29 03:06:11;;;;;;;;;2.00;1.00;;;;;17.09;63.55;101311.38;5036082;28;47232;-76
2021/09/29 03:08:36;;;;;;;;;2.00;1.00;;;;;17.13;63.27;101315.78;5023239;28;47293;-75
2021/09/29 03:11:01;;;;;;;;;1.33;0.00;;;;;17.15;63.21;101315.75;5031595;28;54725;-75
2021/09/29 03:13:27;;;;;;;;;4.00;1.00;;;;;17.16;63.56;101299.75;5034746;28;45848;-77
2021/09/29 03:15:52;;;;;;;;;3.33;0.00;;;;;17.16;63.53;101294.44;5030137;28;45352;-76
2021/09/29 03:18:18;;;;;;;;;1.00;1.00;;;;;17.14;63.75;101301.53;5024106;28;63078;-75
2021/09/29 03:20:43;;;;;;;;;2.33;0.00;;;;;17.13;63.77;101299.78;5025887;28;45226;-77
2021/09/29 03:23:08;;;;;;;;;1.00;1.00;;;;;17.07;63.57;101299.84;5034302;28;45445;-77
2021/09/29 03:25:34;;;;;;;;;2.00;0.00;;;;;17.03;63.53;101304.31;5022266;28;45361;-76
2021/09/29 03:27:59;;;;;;;;;0.00;0.00;;;;;17.07;63.75;101305.16;5023885;28;60955;-76
2021/09/29 03:30:25;;;;;;;;;2.33;0.00;;;;;17.03;63.66;101300.75;5033993;28;53407;-77
2021/09/29 03:32:50;;;;;;;;;1.00;1.00;;;;;17.01;63.76;101300.78;5021242;28;47729;-76
2021/09/29 03:35:15;;;;;;;;;0.00;0.00;;;;;17.06;64.00;101305.19;5049280;28;45328;-77
2021/09/29 03:37:41;;;;;;;;;2.00;1.00;;;;;17.07;63.68;101302.50;5025699;28;46777;-76
2021/09/29 03:40:08;;;;;;;;;0.33;0.33;;;;;17.11;63.95;101312.25;5035254;28;45337;-77
2021/09/29 03:42:34;;;;;;;;;0.67;0.67;;;;;17.13;63.86;101313.13;5031961;28;45463;-76
2021/09/29 03:44:59;;;;;;;;;4.00;0.00;;;;;17.18;64.04;101326.44;5033553;28;46028;-75
2021/09/29 03:47:24;;;;;;;;;0.00;0.00;;;;;17.20;64.48;101324.63;5030404;28;60821;-76
2021/09/29 03:49:50;;;;;;;;;0.00;0.00;;;;;17.19;64.54;101322.84;5035340;28;45491;-76
2021/09/29 03:52:15;;;;;;;;;0.00;0.00;;;;;17.21;64.71;101327.31;5010693;28;54073;-77
2021/09/29 03:54:40;;;;;;;;;3.00;0.00;;;;;17.22;65.08;101328.19;5018491;28;51507;-76
2021/09/29 03:57:06;;;;;;;;;2.00;0.00;;;;;17.18;64.85;101321.09;5030644;28;56529;-76
2021/09/29 03:59:31;;;;;;;;;0.67;0.00;;;;;17.14;65.58;101324.69;5022832;28;53745;-76
2021/09/29 04:01:57;;;;;;;;;0.67;0.67;;;;;17.07;66.18;101323.84;5028716;28;45666;-76
2021/09/29 04:04:22;;;;;;;;;2.00;1.00;;;;;17.05;66.01;101319.44;5034896;28;45470;-76
2021/09/29 04:06:48;;;;;;;;;0.00;0.00;;;;;17.00;65.74;101312.34;5031292;28;46877;-76
2021/09/29 04:09:13;;;;;;;;;4.67;1.00;;;;;17.02;65.84;101318.53;5035184;28;45304;-78
2021/09/29 04:11:39;;;;;;;;;0.00;0.00;;;;;17.03;66.39;101316.75;5031088;28;54535;-76
2021/09/29 04:14:06;;;;;;;;;1.33;1.00;;;;;17.01;66.30;101319.44;5034546;28;45416;-78
2021/09/29 04:16:31;;;;;;;;;0.33;0.00;;;;;17.02;67.64;101323.00;5030223;28;47288;-76
2021/09/29 04:18:57;;;;;;;;;1.00;0.67;;;;;17.03;66.15;101335.44;5025704;28;45354;-75
2021/09/29 04:21:22;;;;;;;;;2.00;0.00;;;;;17.04;66.47;101334.53;5005784;28;45893;-76
2021/09/29 04:23:48;;;;;;;;;0.00;0.00;;;;;17.05;66.58;101328.31;5027627;28;45594;-76
2021/09/29 04:26:13;;;;;;;;;0.00;0.00;;;;;17.06;66.11;101324.75;5016382;28;54638;-77
2021/09/29 04:28:38;;;;;;;;;3.00;0.00;;;;;17.08;66.24;101325.63;5001759;28;58034;-79
2021/09/29 04:31:04;;;;;;;;;2.00;1.00;;;;;17.09;65.88;101335.38;5038243;28;45519;-75
2021/09/29 04:33:29;;;;;;;;;0.00;0.00;;;;;17.09;65.98;101330.03;5015632;28;45376;-75
2021/09/29 04:35:55;;;;;;;;;0.00;0.00;;;;;17.09;66.14;101342.50;5040690;28;47490;-74
2021/09/29 04:38:21;;;;;;;;;1.33;0.33;;;;;17.07;66.26;101338.97;5029261;28;45382;-74
2021/09/29 04:40:46;;;;;;;;;0.00;0.00;;;;;17.05;66.49;101340.78;5032905;28;45510;-74
2021/09/29 04:43:12;;;;;;;;;1.00;0.00;;;;;17.02;66.81;101355.91;5030982;28;45922;-73
2021/09/29 04:45:38;;;;;;;;;0.00;0.00;;;;;17.02;67.49;101363.91;5032332;28;45483;-75
2021/09/29 04:48:04;;;;;;;;;1.00;1.00;;;;;17.01;66.93;101379.94;5015352;28;45374;-73
2021/09/29 04:50:29;;;;;;;;;1.00;1.00;;;;;16.88;67.61;101386.22;5035850;28;45357;-74
2021/09/29 04:52:55;;;;;;;;;0.00;0.00;;;;;16.78;67.75;101380.09;5033519;28;45582;-73
2021/09/29 04:55:20;;;;;;;;;0.00;0.00;;;;;16.77;68.67;101376.50;5035292;28;46096;-75
2021/09/29 04:57:46;;;;;;;;;0.00;0.00;;;;;16.71;68.22;101389.88;5036281;28;45439;-73
2021/09/29 05:00:12;;;;;;;;;0.00;0.00;;;;;16.62;68.85;101387.25;5044367;28;45344;-75
2021/09/29 05:02:38;;;;;;;;;1.00;0.00;;;;;16.58;69.22;101398.81;5030645;28;45598;-75
2021/09/29 05:05:03;;;;;;;;;0.00;0.00;;;;;16.53;67.81;101397.94;5027659;28;46720;-76
2021/09/29 05:07:29;;;;;;;;;1.00;0.00;;;;;16.47;67.57;101395.31;5028799;28;45625;-75
2021/09/29 05:09:55;;;;;;;;;0.00;0.00;;;;;16.48;67.82;101408.63;5024266;28;53027;-75
2021/09/29 05:12:31;;;;;;;;;0.00;0.00;;;;;16.43;67.61;101406.88;5023612;28;45538;-77
2021/09/29 05:14:56;;;;;;;;;0.00;0.00;;;;;16.39;67.04;101405.09;5029282;28;47442;-75
2021/09/29 05:17:23;;;;;;;;;0.00;0.00;;;;;16.33;67.24;101403.34;5028785;28;45513;-77
2021/09/29 05:19:49;;;;;;;;;0.00;0.00;;;;;16.34;67.09;101415.78;5027725;28;45393;-77
2021/09/29 05:22:14;;;;;;;;;1.00;0.00;;;;;16.32;67.23;101412.25;5031302;28;45454;-75
2021/09/29 05:24:40;;;;;;;;;1.00;0.00;;;;;16.29;67.37;101409.56;5028411;28;46759;-77
2021/09/29 05:27:05;;;;;;;;;0.33;0.00;;;;;16.21;67.39;101412.28;5028417;28;58482;-76
2021/09/29 05:29:31;;;;;;;;;0.00;0.00;;;;;16.21;67.36;101425.59;5031676;28;45526;-77
2021/09/29 05:31:57;;;;;;;;;0.00;0.00;;;;;16.19;66.94;101427.38;5031272;28;45597;-76
2021/09/29 05:34:24;;;;;;;;;0.00;0.00;;;;;16.17;67.38;101434.47;5025015;28;46322;-77
2021/09/29 05:36:52;;;;;;;;;0.67;0.00;;;;;16.12;67.13;101446.91;5033169;28;45317;-76
2021/09/29 05:39:17;;;;;;;;;0.00;0.00;;;;;16.10;67.33;101454.03;5027626;28;45357;-75
2021/09/29 05:41:43;;;;;;;;;1.00;0.00;;;;;16.06;67.42;101456.72;5033178;28;53485;-75
2021/09/29 05:44:08;;;;;;;;;0.67;0.00;;;;;16.09;67.73;101457.59;5024170;28;58669;-76
2021/09/29 05:46:34;;;;;;;;;0.00;0.00;;;;;16.11;67.48;101465.59;5027944;28;51203;-76
2021/09/29 05:49:00;;;;;;;;;0.00;0.00;;;;;16.08;67.11;101460.25;5026662;28;45748;-79
2021/09/29 05:51:25;;;;;;;;;0.00;0.00;;;;;16.01;67.81;101458.50;5025549;28;45580;-75
2021/09/29 05:53:52;;;;;;;;;0.67;0.00;;;;;16.01;67.19;101469.16;5022123;28;63320;-77
2021/09/29 05:56:17;;;;;;;;;0.00;0.00;;;;;15.99;67.44;101469.16;5029841;28;45617;-76
2021/09/29 05:58:43;;;;;;;;;1.00;0.00;;;;;15.98;67.27;101476.25;5033571;28;45396;-79
2021/09/29 06:01:08;;;;;;;;;0.00;0.00;;;;;16.00;67.53;101484.25;5032442;28;56039;-79
2021/09/29 06:03:34;;;;;;;;;0.00;0.00;;;;;16.02;67.31;101489.56;5033383;28;47390;-78
2021/09/29 06:05:59;;;;;;;;;0.00;0.00;;;;;16.00;67.58;101510.88;5040324;28;45497;-78
2021/09/29 06:08:25;;;;;;;;;0.00;0.00;;;;;15.96;66.98;101504.66;5036237;28;45516;-77
2021/09/29 06:10:50;;;;;;;;;0.00;0.00;;;;;15.96;67.62;101520.63;5028742;28;45426;-74
2021/09/29 06:13:16;;;;;;;;;2.00;0.67;;;;;15.99;67.70;101525.09;5029616;28;48020;-76
2021/09/29 06:15:42;;;;;;;;;1.00;0.00;;;;;16.01;67.72;101533.06;5024016;28;45436;-76
2021/09/29 06:18:13;;;;;;;;;0.00;0.00;;;;;16.02;67.31;101530.41;5011418;28;45558;-76
2021/09/29 06:20:41;;;;;;;;;0.00;0.00;;;;;16.03;67.82;101537.50;5014093;28;45571;-78
2021/09/29 06:23:07;;;;;;;;;0.00;0.00;;;;;16.05;67.30;101534.84;5034270;28;45832;-78
2021/09/29 06:25:32;;;;;;;;;0.00;0.00;;;;;16.07;67.62;101549.06;5024367;28;45368;-76
2021/09/29 06:27:57;;;;;;;;;0.00;0.00;;;;;16.10;67.65;101546.41;5034523;28;45488;-75
2021/09/29 06:30:23;;;;;;;;;0.00;0.00;;;;;16.09;67.20;101552.63;5033202;28;46856;-78
2021/09/29 06:32:48;;;;;;;;;0.67;0.00;;;;;16.10;67.29;101565.06;5030656;28;46453;-75
2021/09/29 06:35:14;;;;;;;;;0.00;0.00;;;;;16.11;66.96;101569.47;5036610;28;45529;-74
2021/09/29 06:37:41;;;;;;;;;0.67;0.00;;;;;16.10;66.83;101583.69;5029359;28;51282;-75
2021/09/29 06:40:08;;;;;;;;;0.00;0.00;;;;;16.08;66.88;101569.47;5030196;28;46890;-75
2021/09/29 06:42:33;;;;;;;;;1.67;0.00;;;;;16.07;67.19;101571.25;5033051;28;46088;-75
2021/09/29 06:44:59;;;;;;;;;0.00;0.00;;;;;16.11;67.13;101582.81;5037891;28;45445;-74
2021/09/29 06:47:24;;;;;;;;;1.00;0.00;;;;;16.11;66.97;101582.81;5034757;28;45373;-74
2021/09/29 06:49:50;;;;;;;;;0.00;0.00;;;;;16.11;66.88;101591.69;5024355;28;48182;-75
2021/09/29 06:52:15;;;;;;;;;2.33;0.00;;;;;16.12;67.16;101601.44;5026779;28;50424;-75
2021/09/29 06:54:40;;;;;;;;;0.00;0.00;;;;;16.12;67.10;101601.44;5028388;28;58237;-76
2021/09/29 06:57:07;;;;;;;;;4.00;0.00;;;;;16.16;66.98;101613.88;5030474;28;50590;-75
2021/09/29 06:59:33;;;;;;;;;0.00;0.00;;;;;16.20;66.44;101605.03;5033019;28;45404;-75
2021/09/29 07:01:58;;;;;;;;;1.00;0.00;;;;;16.25;66.47;101621.00;5031256;28;46551;-73
2021/09/29 07:04:23;;;;;;;;;59.75;44.25;;;;;16.22;66.09;101619.22;5024951;28;58955;-75
2021/09/29 07:06:49;;;;;;;;;0.00;0.00;;;;;16.21;65.93;101633.44;5032388;28;45421;-75
2021/09/29 07:09:14;;;;;;;;;2.00;0.00;;;;;16.17;65.76;101636.97;5032531;28;45420;-74
2021/09/29 07:11:40;;;;;;;;;2.00;0.00;;;;;16.12;65.94;101628.09;5030124;28;56159;-77
2021/09/29 07:14:05;;;;;;;;;1.00;0.00;;;;;16.13;66.00;101632.53;5024145;28;54946;-77
2021/09/29 07:16:30;;;;;;;;;1.00;0.00;;;;;16.12;65.56;101630.75;5026788;28;45368;-76
2021/09/29 07:19:01;;;;;;;;;0.00;0.00;;;;;16.12;65.80;101640.53;5031673;28;45539;-76
2021/09/29 07:21:26;;;;;;;;;0.00;0.00;;;;;16.06;65.68;101635.19;5032593;28;46338;-75
2021/09/29 07:23:52;;;;;;;;;0.00;0.00;;;;;16.06;66.31;101648.50;5024668;28;56854;-75
2021/09/29 07:26:17;;;;;;;;;1.00;0.00;;;;;16.01;66.79;101648.50;5024217;28;45587;-77
2021/09/29 07:28:43;;;;;;;;;0.00;0.00;;;;;16.00;66.82;101654.72;5139669;22;51640;-76
2021/09/29 07:31:09;;;;;;;;;0.00;0.00;;;;;15.96;66.91;101637.84;4990506;28;45999;-75
2021/09/29 07:33:35;;;;;;;;;1.67;0.00;;;;;15.97;66.97;101652.03;5002555;28;47917;-76
2021/09/29 07:36:01;;;;;;;;;16.67;12.00;;;;;15.92;66.76;101648.47;5001680;28;45896;-78
2021/09/29 07:38:28;;;;;;;;;0.00;0.00;;;;;15.97;67.04;101660.91;4993554;28;45457;-73
2021/09/29 07:40:54;;;;;;;;;3.00;0.33;;;;;15.97;66.61;101657.38;4994130;28;46854;-74
2021/09/29 07:43:19;;;;;;;;;0.00;0.00;;;;;16.01;66.72;101661.81;4988422;28;46193;-74
2021/09/29 07:45:44;;;;;;;;;2.00;0.00;;;;;16.01;67.11;101667.16;4986310;28;47257;-76
2021/09/29 07:48:10;;;;;;;;;1.00;0.00;;;;;16.04;66.85;101666.28;4994723;28;50935;-76
2021/09/29 07:50:35;;;;;;;;;1.00;0.00;;;;;16.04;66.80;101672.50;4979723;28;59505;-74
2021/09/29 07:53:01;;;;;;;;;1.00;0.00;;;;;16.05;66.66;101682.25;4996608;28;45361;-75
2021/09/29 07:55:26;;;;;;;;;0.00;0.00;;;;;16.08;66.34;101687.56;4995321;28;45578;-74
2021/09/29 07:57:51;;;;;;;;;0.00;0.00;;;;;16.09;66.62;101701.81;4989788;28;45508;-75
2021/09/29 08:00:18;;;;;;;;;0.00;0.00;;;;;16.07;66.52;101698.25;5001890;28;45765;-74
2021/09/29 08:02:43;;;;;;;;;0.67;0.67;;;;;15.98;66.50;101692.03;4995934;28;46642;-75
2021/09/29 08:05:09;;;;;;;;;0.00;0.00;;;;;16.04;66.37;101701.81;4980269;28;45702;-75
2021/09/29 08:07:35;;;;;;;;;2.00;0.33;;;;;16.07;66.27;101699.13;4994324;28;45749;-74
2021/09/29 08:10:00;;;;;;;;;2.33;1.00;;;;;16.08;66.02;101710.66;4996320;28;45634;-75
2021/09/29 08:12:25;;;;;;;;;3.00;0.00;;;;;16.07;66.09;101707.13;4998455;28;45698;-74
2021/09/29 08:14:52;;;;;;;;;3.00;0.00;;;;;16.06;65.72;101716.00;4994562;28;51104;-74
2021/09/29 08:17:17;;;;;;;;;0.00;0.00;;;;;16.10;65.45;101711.59;4994112;28;45627;-75
2021/09/29 08:19:43;;;;;;;;;0.33;0.00;;;;;16.11;65.48;101714.25;4991472;28;45598;-74
2021/09/29 08:22:09;;;;;;;;;2.67;0.00;;;;;16.14;65.27;101730.25;4986267;28;45560;-74
2021/09/29 08:25:00;;;;;;;;;2.33;0.00;;;;;16.15;64.90;101724.03;4999348;28;45390;-73
2021/09/29 08:32:42;;;;;;;;;2.67;0.33;;;;;16.14;64.20;101735.56;4996239;28;45594;-73
2021/09/29 08:35:26;;;;;;;;;2.67;0.67;;;;;16.18;63.35;101753.31;4999751;28;45357;-74
2021/09/29 08:38:24;;;;;;;;;2.00;0.00;;;;;16.19;63.42;101757.78;4997187;28;45598;-74
2021/09/29 08:43:21;;;;;;;;;1.67;0.33;;;;;16.22;62.99;101770.22;4997425;28;45540;-75
2021/09/29 08:45:59;;;;;;;;;0.00;0.00;;;;;16.16;62.37;101760.44;4993300;28;45511;-74
2021/09/29 08:48:37;;;;;;;;;3.00;0.00;;;;;16.15;62.87;101764.00;4995216;28;45414;-74
2021/09/29 09:16:59;;;;;;;;;2.33;0.00;;;;;16.67;60.66;101798.78;4976724;28;45624;-74
2021/09/29 09:18:53;;;;;;;;;0.00;0.00;;;;;16.77;59.77;101811.22;4980394;28;46179;-75
2021/09/29 09:21:19;;;;;;;;;4.67;0.00;;;;;16.85;59.91;101810.38;4991758;28;50233;-75
2021/09/29 09:23:45;;;;;;;;;0.00;0.00;;;;;16.84;59.75;101806.81;4998209;28;46554;-74
2021/09/29 09:26:23;;;;;;;;;5.00;1.00;;;;;16.91;59.66;101816.59;4997655;28;45685;-76
2021/09/29 09:28:50;;;;;;;;;0.00;0.00;;;;;16.93;59.42;101816.59;4989973;28;45437;-75
2021/09/29 09:31:17;;;;;;;;;2.00;1.00;;;;;16.92;59.18;101814.81;4996841;28;45495;-75
2021/09/29 09:33:55;;;;;;;;;2.33;0.00;;;;;17.03;58.58;101823.72;4980801;28;47302;-76
2021/09/29 09:36:43;;;;;;;;;0.00;0.00;;;;;17.13;58.22;101828.16;4998366;28;45696;-76
2021/09/29 09:39:22;;;;;;;;;2.67;0.00;;;;;17.18;57.76;101828.16;4999163;28;45741;-75
2021/09/29 09:41:48;;;;;;;;;2.00;0.00;;;;;17.16;57.65;101822.84;4978751;28;45601;-77
2021/09/29 09:44:24;;;;;;;;;1.33;0.00;;;;;17.08;57.18;101821.03;4997041;28;46578;-75
2021/09/29 09:47:06;;;;;;;;;1.00;1.00;;;;;17.05;56.87;101845.06;4991746;28;45507;-76
2021/09/29 09:49:42;;;;;;;;;0.67;0.00;;;;;16.98;57.43;101845.03;4993650;28;45600;-74
2021/09/29 09:52:08;;;;;;;;;1.33;0.00;;;;;16.98;56.63;101833.47;4984617;28;45687;-77
2021/09/29 09:54:38;;;;;;;;;0.33;0.33;;;;;17.04;55.46;101836.16;4956729;28;45521;-76
2021/09/29 09:57:15;;;;;;;;;2.00;0.00;;;;;17.24;56.89;101837.03;4998188;28;45503;-75
2021/09/29 09:59:49;;;;;;;;;0.00;0.00;;;;;17.46;56.26;101834.34;4999660;28;45599;-79
2021/09/29 10:02:17;;;;;;;;;3.00;0.00;;;;;17.65;56.03;101833.44;5001749;28;45651;-75
2021/09/29 10:04:43;;;;;;;;;0.00;0.00;;;;;17.80;54.75;101840.56;4979693;28;46607;-77
2021/09/29 10:07:09;;;;;;;;;3.00;0.00;;;;;17.85;54.21;101835.22;4965597;28;46114;-75
2021/09/29 10:09:44;;;;;;;;;0.00;0.00;;;;;17.99;54.68;101841.38;5003213;28;51728;-74
2021/09/29 10:22:50;;;;;;;;;2.33;1.00;;;;;18.25;53.78;101849.31;4999197;28;46455;-76
2021/09/29 10:28:19;;;;;;;;;2.00;0.00;;;;;18.21;52.55;101866.25;4999258;28;45413;-78
2021/09/29 10:34:05;;;;;;;;;1.00;1.00;;;;;17.17;68.28;101952.72;4977946;28;45645;-74
2021/09/29 10:44:27;;;;;;;;;1.00;1.00;;;;;15.90;72.72;101935.25;4994341;28;45409;-75
2021/09/29 10:47:11;;;;;;;;;0.00;0.00;;;;;15.74;71.96;101934.25;4995987;28;47500;-74
2021/09/29 11:06:53;;;;;;;;;0.33;0.33;;;;;14.98;73.92;101954.81;4994363;28;45815;-74
2021/09/29 11:30:58;;;;;;;;;2.00;0.00;;;;;15.32;71.82;101978.22;4981769;28;46623;-74
2021/09/29 11:33:39;;;;;;;;;1.00;0.00;;;;;15.65;69.92;101980.31;4984140;28;45673;-75
2021/09/29 12:09:12;;;;;;;;;0.00;0.00;;;;;17.42;62.28;102019.50;4982832;28;45508;-73
2021/09/29 12:11:44;;;;;;;;;0.00;0.00;;;;;17.44;60.00;102001.69;5004480;28;45600;-76
2021/09/29 12:14:19;;;;;;;;;1.00;0.00;;;;;17.58;61.01;102010.63;4996607;28;46439;-74
2021/09/29 12:16:50;;;;;;;;;0.00;0.00;;;;;17.64;60.61;102007.06;4999642;28;45528;-73
2021/09/29 12:19:32;;;;;;;;;1.00;1.00;;;;;17.71;60.40;102003.50;4998741;28;45355;-74
2021/09/29 12:22:00;;;;;;;;;2.33;1.00;;;;;17.71;59.71;102001.72;4997771;28;45334;-75
2021/09/29 12:24:35;;;;;;;;;2.00;0.00;;;;;17.66;58.69;102003.50;4996218;28;46399;-74
2021/09/29 12:27:03;;;;;;;;;0.00;0.00;;;;;17.52;59.45;101992.81;4998104;28;45520;-74
2021/09/29 12:37:54;;;;;;;;;0.00;0.00;;;;;17.43;56.83;102026.63;4956198;28;45369;-74
2021/09/29 12:40:20;;;;;;;;;0.00;0.00;;;;;17.47;55.36;102023.97;4997708;28;45514;-74
2021/09/29 12:42:45;;;;;;;;;1.00;0.00;;;;;17.59;53.81;102028.44;4999907;28;53773;-73
2021/09/29 12:45:10;;;;;;;;;0.00;0.00;;;;;17.70;53.91;102037.34;4996542;28;53278;-74
2021/09/29 12:47:39;;;;;;;;;0.00;0.00;;;;;17.71;54.82;102027.53;5000369;28;45495;-75
2021/09/29 12:50:27;;;;;;;;;181.75;86.25;;;;;17.75;54.34;102040.94;4997154;28;45652;-76
2021/09/29 12:52:58;;;;;;;;;0.33;0.00;;;;;17.85;51.60;102038.28;4994665;28;45520;-74
2021/09/29 12:55:32;;;;;;;;;14.67;6.67;;;;;18.04;52.80;102051.63;4998735;28;46654;-75
2021/09/29 12:57:57;;;;;;;;;1.00;0.00;;;;;18.37;52.93;102052.47;4990470;28;45498;-76
2021/09/29 13:00:22;;;;;;;;;0.00;0.00;;;;;18.65;50.51;102052.44;4992145;28;47170;-74
2021/09/29 13:02:48;;;;;;;;;0.00;0.00;;;;;18.69;51.00;102049.75;4995238;28;53302;-74
2021/09/29 13:05:13;;;;;;;;;0.00;0.00;;;;;18.65;49.61;102076.53;4995784;28;46358;-75
2021/09/29 13:07:39;;;;;;;;;0.00;0.00;;;;;18.46;49.95;102068.50;4998705;28;45562;-75
2021/09/29 13:10:04;;;;;;;;;0.00;0.00;;;;;18.26;50.33;102076.56;4998987;28;46053;-74
2021/09/29 13:12:30;;;;;;;;;0.33;0.00;;;;;18.05;49.20;102087.25;4999877;28;45547;-74
2021/09/29 13:14:56;;;;;;;;;0.00;0.00;;;;;17.81;50.20;102088.16;5008167;28;45767;-76
2021/09/29 13:17:21;;;;;;;;;0.00;0.00;;;;;17.64;51.24;102072.06;4995516;28;46989;-74
2021/09/29 13:20:10;;;;;;;;;0.00;0.00;;;;;17.70;52.03;102079.19;4994608;28;50720;-76
2021/09/29 13:22:35;;;;;;;;;1.00;0.00;;;;;17.75;51.79;102083.69;4992002;28;45470;-75
2021/09/29 13:38:15;;;;;;;;;3.00;1.00;;;;;17.81;51.92;102104.19;5027363;28;45434;-74
2021/09/29 13:40:43;;;;;;;;;3.00;0.00;;;;;17.90;51.93;102092.63;5033465;28;46291;-76
2021/09/29 13:43:09;;;;;;;;;0.00;0.00;;;;;18.00;51.82;102089.97;5031718;28;45355;-74
2021/09/29 13:45:35;;;;;;;;;2.00;0.00;;;;;18.32;51.95;102103.31;5034772;28;46681;-74
2021/09/29 13:48:01;;;;;;;;;2.00;0.00;;;;;18.55;50.71;102102.41;5027903;28;45537;-74
2021/09/29 13:50:27;;;;;;;;;0.00;0.00;;;;;18.72;49.08;102111.31;5020675;28;45473;-75
2021/09/29 13:52:52;;;;;;;;;2.00;0.00;;;;;18.80;49.73;102098.81;5034634;28;45455;-74
2021/09/29 13:55:23;;;;;;;;;0.00;0.00;;;;;18.94;49.64;102106.78;5029962;28;45773;-74
2021/09/29 13:58:18;;;;;;;;;3.00;0.00;;;;;19.07;49.40;102113.00;5039852;22;45606;-75